createdAt,value
2022-09-04T00:01:01.639Z,8.94
2022-09-04T00:03:32.218Z,8.85
2022-09-04T00:06:05.935Z,8.77
2022-09-04T00:08:59.526Z,8.68
2022-09-04T00:11:52.956Z,8.62
2022-09-04T00:14:35.165Z,8.46
2022-09-04T00:17:09.295Z,8.54
2022-09-04T00:19:59.786Z,8.54
2022-09-04T00:23:04.475Z,8.51
2022-09-04T00:25:50.847Z,8.39
2022-09-04T00:28:45.615Z,8.38
2022-09-04T00:31:30.475Z,8.39
2022-09-04T00:34:19.786Z,8.34
2022-09-04T00:36:51.855Z,8.28
2022-09-04T00:39:29.512Z,8.26
2022-09-04T00:42:24.711Z,8.20
2022-09-04T00:45:01.495Z,8.20
2022-09-04T00:47:48.905Z,8.25
2022-09-04T00:50:23.167Z,8.17
2022-09-04T00:53:13.257Z,8.07
2022-09-04T00:56:06.096Z,8.11
2022-09-04T00:59:16.627Z,8.12
2022-09-04T01:01:48.066Z,8.00
2022-09-04T01:04:26.286Z,7.96
2022-09-04T01:07:17.335Z,7.96
2022-09-04T01:10:13.798Z,7.91
2022-09-04T01:13:41.636Z,7.90
2022-09-04T01:16:44.524Z,7.85
2022-09-04T01:19:21.417Z,7.89
2022-09-04T01:22:30.345Z,7.83
2022-09-04T01:25:30.357Z,7.63
2022-09-04T01:28:07.537Z,7.57
2022-09-04T01:30:47.896Z,7.41
2022-09-04T01:33:20.930Z,7.37
2022-09-04T01:35:55.401Z,7.34
2022-09-04T01:38:47.736Z,7.36
2022-09-04T01:41:37.700Z,7.31
2022-09-04T01:44:08.436Z,7.36
2022-09-04T01:46:42.156Z,7.47
2022-09-04T01:49:20.947Z,7.42
2022-09-04T01:52:21.936Z,7.43
2022-09-04T01:55:25.846Z,7.37
2022-09-04T01:58:08.207Z,7.41
2022-09-04T02:00:49.695Z,7.36
2022-09-04T02:03:22.515Z,7.46
2022-09-04T02:06:05.236Z,7.54
2022-09-04T02:08:42.337Z,7.58
2022-09-04T02:11:27.795Z,7.56
2022-09-04T02:14:14.545Z,7.60
2022-09-04T02:17:09.556Z,7.64
2022-09-04T02:19:45.876Z,7.67
2022-09-04T02:22:24.897Z,7.76
2022-09-04T02:25:16.106Z,7.71
2022-09-04T02:27:52.037Z,7.69
2022-09-04T02:30:20.876Z,7.63
2022-09-04T02:32:54.066Z,7.64
2022-09-04T02:35:30.936Z,7.67
2022-09-04T02:38:04.296Z,7.70
2022-09-04T02:40:50.197Z,7.70
2022-09-04T02:43:35.778Z,7.63
2022-09-04T02:46:19.236Z,7.74
2022-09-04T02:49:08.278Z,7.79
2022-09-04T02:51:44.777Z,7.77
2022-09-04T02:54:25.887Z,7.88
2022-09-04T02:57:33.717Z,7.94
2022-09-04T03:00:28.818Z,7.97
2022-09-04T03:03:02.937Z,7.95
2022-09-04T03:05:42.450Z,7.99
2022-09-04T03:08:18.616Z,7.97
2022-09-04T03:11:15.846Z,7.95
2022-09-04T03:13:48.917Z,7.98
2022-09-04T03:16:37.526Z,7.99
2022-09-04T03:19:11.397Z,8.01
2022-09-04T03:21:53.597Z,8.10
2022-09-04T03:24:46.529Z,8.12
2022-09-04T03:27:16.867Z,8.10
2022-09-04T03:29:46.997Z,8.09
2022-09-04T03:32:35.339Z,8.10
2022-09-04T03:35:14.947Z,8.02
2022-09-04T03:38:01.542Z,8.04
2022-09-04T03:40:38.128Z,8.00
2022-09-04T03:43:23.837Z,7.90
2022-09-04T03:46:03.406Z,7.82
2022-09-04T03:48:52.387Z,7.88
2022-09-04T03:51:38.506Z,7.90
2022-09-04T03:54:24.433Z,7.91
2022-09-04T03:56:51.938Z,7.86
2022-09-04T03:59:25.587Z,7.78
2022-09-04T04:01:58.919Z,7.80
2022-09-04T04:05:16.829Z,7.84
2022-09-04T04:07:52.788Z,7.89
2022-09-04T04:10:33.803Z,7.86
2022-09-04T04:13:36.597Z,7.84
2022-09-04T04:16:25.549Z,7.87
2022-09-04T04:19:17.556Z,7.83
2022-09-04T04:21:56.267Z,7.85
2022-09-04T04:24:39.596Z,7.80
2022-09-04T04:27:26.626Z,7.77
2022-09-04T04:30:07.856Z,7.85
2022-09-04T04:33:10.557Z,7.87
2022-09-04T04:36:13.466Z,7.84
2022-09-04T04:39:10.096Z,7.79
2022-09-04T04:42:05.910Z,7.81
2022-09-04T04:45:16.727Z,7.85
2022-09-04T04:47:49.476Z,7.73
2022-09-04T04:50:22.246Z,7.81
2022-09-04T04:52:57.357Z,7.83
2022-09-04T04:55:50.535Z,7.77
2022-09-04T04:58:43.556Z,7.77
2022-09-04T05:01:23.067Z,7.80
2022-09-04T05:04:40.888Z,7.88
2022-09-04T05:07:10.806Z,7.76
2022-09-04T05:10:07.376Z,7.96
2022-09-04T05:13:11.602Z,8.02
2022-09-04T05:16:05.055Z,8.07
2022-09-04T05:18:45.347Z,8.04
2022-09-04T05:21:21.798Z,8.17
2022-09-04T05:24:15.186Z,8.20
2022-09-04T05:27:07.936Z,8.29
2022-09-04T05:29:55.546Z,8.31
2022-09-04T05:32:28.796Z,8.44
2022-09-04T05:35:15.916Z,8.49
2022-09-04T05:37:43.506Z,8.54
2022-09-04T05:40:20.076Z,8.69
2022-09-04T05:43:06.879Z,8.82
2022-09-04T05:45:46.346Z,9.06
2022-09-04T05:48:46.157Z,9.28
2022-09-04T05:51:43.899Z,9.55
2022-09-04T05:54:52.636Z,9.90
2022-09-04T05:57:38.536Z,10.13
2022-09-04T06:00:16.865Z,10.39
2022-09-04T06:02:53.547Z,10.65
2022-09-04T06:05:44.634Z,10.90
2022-09-04T06:08:33.269Z,11.11
2022-09-04T06:11:45.031Z,11.30
2022-09-04T06:14:45.836Z,11.43
2022-09-04T06:17:22.517Z,11.54
2022-09-04T06:19:55.777Z,11.62
2022-09-04T06:22:55.715Z,11.57
2022-09-04T06:25:48.896Z,11.71
2022-09-04T06:28:38.176Z,11.87
2022-09-04T06:31:08.570Z,12.07
2022-09-04T06:33:42.118Z,12.23
2022-09-04T06:36:15.579Z,12.66
2022-09-04T06:39:03.136Z,12.94
2022-09-04T06:42:03.169Z,13.15
2022-09-04T06:44:51.295Z,13.35
2022-09-04T06:47:21.937Z,13.52
2022-09-04T06:50:08.956Z,13.77
2022-09-04T06:53:04.445Z,13.86
2022-09-04T06:55:59.957Z,14.01
2022-09-04T06:58:48.277Z,14.23
2022-09-04T07:01:26.463Z,14.39
2022-09-04T07:04:31.026Z,14.72
2022-09-04T07:07:40.166Z,14.95
2022-09-04T07:10:23.895Z,15.11
2022-09-04T07:13:10.509Z,15.28
2022-09-04T07:15:50.071Z,15.42
2022-09-04T07:18:30.186Z,15.47
2022-09-04T07:21:22.696Z,15.76
2022-09-04T07:24:13.606Z,15.66
2022-09-04T07:27:06.587Z,15.60
2022-09-04T07:29:38.746Z,15.60
2022-09-04T07:32:34.178Z,15.61
2022-09-04T07:35:28.717Z,15.73
2022-09-04T07:38:29.816Z,15.96
2022-09-04T07:41:17.848Z,16.36
2022-09-04T07:44:24.556Z,16.92
2022-09-04T07:46:58.276Z,17.25
2022-09-04T07:49:42.825Z,17.47
2022-09-04T07:52:44.956Z,17.61
2022-09-04T07:55:24.176Z,17.65
2022-09-04T07:58:22.977Z,17.84
2022-09-04T08:00:59.995Z,18.01
2022-09-04T08:03:54.509Z,18.38
2022-09-04T08:06:37.897Z,18.76
2022-09-04T08:09:50.416Z,19.17
2022-09-04T08:12:53.586Z,19.45
2022-09-04T08:15:42.974Z,19.75
2022-09-04T08:18:20.358Z,20.20
2022-09-04T08:21:03.906Z,20.79
2022-09-04T08:23:58.775Z,21.36
2022-09-04T08:27:00.047Z,21.81
2022-09-04T08:29:42.996Z,22.00
2022-09-04T08:32:32.463Z,22.30
2022-09-04T08:35:18.387Z,22.07
2022-09-04T08:38:00.628Z,22.19
2022-09-04T08:40:27.986Z,22.38
2022-09-04T08:43:04.445Z,22.27
2022-09-04T08:45:42.486Z,22.47
2022-09-04T08:48:35.935Z,22.76
2022-09-04T08:51:12.358Z,22.98
2022-09-04T08:54:18.465Z,23.17
2022-09-04T08:57:01.135Z,23.19
2022-09-04T08:59:40.375Z,22.97
2022-09-04T09:02:19.891Z,22.54
2022-09-04T09:05:10.215Z,22.13
2022-09-04T09:08:30.975Z,21.81
2022-09-04T09:11:36.897Z,21.80
2022-09-04T09:14:12.739Z,21.80
2022-09-04T09:16:43.458Z,21.88
2022-09-04T09:19:22.657Z,22.10
2022-09-04T09:22:16.886Z,22.07
2022-09-04T09:25:09.945Z,22.45
2022-09-04T09:27:43.643Z,22.67
2022-09-04T09:30:21.457Z,22.72
2022-09-04T09:33:20.762Z,22.64
2022-09-04T09:35:58.230Z,22.57
2022-09-04T09:38:38.137Z,22.59
2022-09-04T09:41:37.495Z,22.45
2022-09-04T09:44:26.926Z,22.39
2022-09-04T09:47:23.055Z,22.03
2022-09-04T09:50:02.635Z,21.69
2022-09-04T09:52:48.996Z,21.51
2022-09-04T09:55:49.676Z,21.06
2022-09-04T09:58:35.176Z,20.83
2022-09-04T10:01:41.566Z,20.52
2022-09-04T10:04:34.138Z,20.38
2022-09-04T10:07:23.145Z,20.30
2022-09-04T10:10:28.304Z,20.28
2022-09-04T10:13:28.696Z,19.95
2022-09-04T10:16:33.632Z,19.68
2022-09-04T10:19:22.958Z,19.63
2022-09-04T10:22:11.768Z,19.46
2022-09-04T10:25:00.605Z,19.42
2022-09-04T10:27:40.586Z,19.35
2022-09-04T10:30:17.646Z,19.20
2022-09-04T10:33:16.885Z,19.00
2022-09-04T10:36:07.966Z,18.86
2022-09-04T10:39:02.205Z,18.79
2022-09-04T10:41:47.015Z,18.67
2022-09-04T10:44:23.248Z,18.67
2022-09-04T10:47:03.345Z,18.57
2022-09-04T10:50:05.955Z,18.59
2022-09-04T10:52:49.686Z,18.54
2022-09-04T10:55:54.506Z,18.41
2022-09-04T10:58:40.935Z,18.14
2022-09-04T11:01:27.883Z,18.05
2022-09-04T11:04:03.038Z,17.92
2022-09-04T11:07:01.546Z,17.82
2022-09-04T11:09:53.955Z,17.72
2022-09-04T11:13:02.505Z,17.64
2022-09-04T11:15:41.025Z,17.68
2022-09-04T11:18:26.854Z,17.65
2022-09-04T11:21:46.207Z,17.90
2022-09-04T11:25:01.803Z,18.05
2022-09-04T11:27:49.476Z,18.16
2022-09-04T11:30:21.715Z,18.24
2022-09-04T11:33:12.807Z,18.23
2022-09-04T11:36:24.755Z,18.49
2022-09-04T11:38:58.106Z,18.58
2022-09-04T11:42:03.265Z,18.68
2022-09-04T11:44:45.345Z,18.76
2022-09-04T11:47:21.716Z,18.75
2022-09-04T11:50:16.936Z,18.90
2022-09-04T11:53:21.932Z,19.00
2022-09-04T11:56:08.855Z,19.04
2022-09-04T11:58:48.115Z,19.14
2022-09-04T12:01:24.835Z,19.14
2022-09-04T12:04:07.334Z,19.03
2022-09-04T12:07:02.347Z,18.96
2022-09-04T12:09:41.463Z,18.85
2022-09-04T12:12:27.616Z,18.76
2022-09-04T12:15:23.456Z,18.73
2022-09-04T12:18:09.795Z,18.66
2022-09-04T12:20:49.396Z,18.61
2022-09-04T12:23:47.705Z,18.60
2022-09-04T12:26:24.520Z,18.48
2022-09-04T12:29:17.568Z,18.44
2022-09-04T12:32:07.550Z,18.41
2022-09-04T12:34:56.855Z,18.46
2022-09-04T12:37:47.605Z,18.47
2022-09-04T12:40:40.956Z,18.48
2022-09-04T12:43:09.075Z,18.46
2022-09-04T12:46:04.257Z,18.52
2022-09-04T12:49:26.488Z,18.70
2022-09-04T12:52:09.156Z,18.65
2022-09-04T12:54:42.274Z,18.68
2022-09-04T12:57:26.047Z,18.65
2022-09-04T13:00:10.995Z,18.64
2022-09-04T13:03:04.287Z,18.72
2022-09-04T13:05:49.772Z,18.76
2022-09-04T13:08:26.935Z,18.80
2022-09-04T13:11:01.724Z,18.88
2022-09-04T13:13:55.757Z,18.86
2022-09-04T13:16:33.647Z,18.84
2022-09-04T13:19:04.296Z,18.87
2022-09-04T13:21:57.576Z,18.85
2022-09-04T13:25:02.945Z,18.79
2022-09-04T13:27:30.439Z,18.74
2022-09-04T13:30:22.163Z,18.75
2022-09-04T13:33:24.841Z,18.88
2022-09-04T13:35:59.486Z,18.80
2022-09-04T13:38:52.966Z,18.79
2022-09-04T13:41:45.306Z,18.77
2022-09-04T13:44:43.815Z,18.75
2022-09-04T13:47:17.258Z,18.73
2022-09-04T13:50:10.194Z,18.65
2022-09-04T13:53:05.618Z,18.59
2022-09-04T13:55:39.846Z,18.62
2022-09-04T13:58:21.037Z,18.43
2022-09-04T14:00:53.605Z,18.45
2022-09-04T14:03:37.939Z,18.35
2022-09-04T14:06:11.362Z,18.24
2022-09-04T14:08:40.713Z,18.11
2022-09-04T14:11:45.557Z,18.08
2022-09-04T14:14:33.486Z,18.04
2022-09-04T14:17:01.396Z,18.07
2022-09-04T14:19:47.477Z,18.10
2022-09-04T14:22:43.667Z,18.09
2022-09-04T14:25:21.725Z,17.93
2022-09-04T14:28:16.543Z,17.98
2022-09-04T14:31:34.071Z,18.10
2022-09-04T14:34:19.306Z,18.02
2022-09-04T14:36:57.366Z,18.06
2022-09-04T14:39:40.611Z,18.07
2022-09-04T14:42:33.797Z,18.11
2022-09-04T14:45:13.456Z,18.06
2022-09-04T14:47:53.956Z,18.08
2022-09-04T14:50:28.846Z,18.00
2022-09-04T14:52:56.456Z,17.99
2022-09-04T14:55:29.897Z,18.02
2022-09-04T14:58:19.802Z,18.00
2022-09-04T15:00:57.567Z,18.02
2022-09-04T15:03:34.004Z,17.96
2022-09-04T15:06:17.289Z,17.96
2022-09-04T15:08:50.146Z,17.93
2022-09-04T15:11:35.019Z,17.94
2022-09-04T15:14:28.679Z,17.88
2022-09-04T15:17:03.766Z,17.85
2022-09-04T15:19:53.357Z,17.83
2022-09-04T15:22:37.936Z,17.81
2022-09-04T15:25:12.086Z,17.74
2022-09-04T15:27:42.258Z,17.67
2022-09-04T15:30:20.816Z,17.62
2022-09-04T15:32:49.977Z,17.60
2022-09-04T15:35:21.206Z,17.63
2022-09-04T15:37:52.118Z,17.63
2022-09-04T15:40:32.108Z,17.63
2022-09-04T15:43:17.966Z,17.69
2022-09-04T15:45:51.746Z,17.61
2022-09-04T15:48:56.326Z,17.55
2022-09-04T15:51:53.118Z,17.50
2022-09-04T15:54:51.427Z,17.24
2022-09-04T15:57:25.406Z,17.17
2022-09-04T15:59:59.679Z,17.08
2022-09-04T16:02:38.907Z,17.14
2022-09-04T16:05:24.097Z,17.07
2022-09-04T16:08:06.718Z,16.95
2022-09-04T16:11:06.836Z,16.91
2022-09-04T16:13:56.977Z,16.84
2022-09-04T16:16:49.816Z,16.83
2022-09-04T16:19:33.106Z,16.72
2022-09-04T16:22:19.566Z,16.76
2022-09-04T16:24:51.207Z,16.66
2022-09-04T16:27:24.290Z,16.75
2022-09-04T16:30:03.715Z,16.84
2022-09-04T16:32:35.442Z,16.88
2022-09-04T16:35:17.697Z,16.81
2022-09-04T16:38:19.980Z,16.82
2022-09-04T16:41:11.218Z,16.59
2022-09-04T16:43:39.797Z,16.38
2022-09-04T16:46:27.671Z,16.21
2022-09-04T16:49:00.956Z,16.10
2022-09-04T16:51:42.033Z,16.09
2022-09-04T16:54:13.706Z,15.99
2022-09-04T16:56:50.075Z,15.98
2022-09-04T16:59:41.855Z,15.79
2022-09-04T17:02:19.766Z,15.76
2022-09-04T17:04:57.114Z,15.72
2022-09-04T17:07:34.096Z,15.72
2022-09-04T17:10:11.707Z,15.63
2022-09-04T17:12:52.868Z,15.58
2022-09-04T17:15:23.555Z,15.63
2022-09-04T17:17:54.153Z,15.62
2022-09-04T17:21:39.672Z,15.55
2022-09-04T17:29:01.514Z,15.55
2022-09-04T17:29:07.872Z,15.54
2022-09-04T17:29:39.506Z,15.53
2022-09-04T17:34:07.093Z,15.52
2022-09-04T17:40:42.298Z,15.48
2022-09-04T17:40:48.434Z,15.48
2022-09-04T17:41:53.102Z,15.53
2022-09-04T17:44:26.425Z,15.49
2022-09-04T17:47:00.175Z,15.51
2022-09-04T17:49:34.653Z,15.46
2022-09-04T17:52:09.224Z,15.48
2022-09-04T17:54:49.189Z,15.41
2022-09-04T17:57:19.925Z,15.29
2022-09-04T18:00:10.306Z,15.30
2022-09-04T18:03:02.064Z,15.42
2022-09-04T18:05:53.565Z,15.41
2022-09-04T18:08:32.915Z,15.43
2022-09-04T18:11:40.977Z,15.50
2022-09-04T18:14:32.107Z,15.37
2022-09-04T18:17:22.979Z,15.52
2022-09-04T18:19:58.195Z,15.41
2022-09-04T18:22:44.725Z,15.45
2022-09-04T18:25:32.336Z,15.36
2022-09-04T18:28:33.965Z,15.35
2022-09-04T18:37:08.360Z,15.32
2022-09-04T18:37:21.334Z,15.20
2022-09-04T18:37:44.602Z,15.20
2022-09-04T18:41:33.897Z,15.22
2022-09-04T18:49:23.830Z,15.28
2022-09-04T18:50:36.086Z,15.27
2022-09-04T18:50:48.103Z,15.23
2022-09-04T18:52:00.717Z,15.28
2022-09-04T18:54:42.703Z,15.26
2022-09-04T18:57:33.435Z,15.26
2022-09-04T19:00:13.685Z,15.27
2022-09-04T19:02:53.456Z,15.25
2022-09-04T19:05:30.656Z,15.28
2022-09-04T19:08:19.850Z,15.26
2022-09-04T19:11:01.455Z,15.26
2022-09-04T19:13:48.275Z,15.31
2022-09-04T19:16:39.716Z,15.33
2022-09-04T19:19:09.064Z,15.21
2022-09-04T19:22:03.726Z,15.29
2022-09-04T19:25:05.846Z,15.30
2022-09-04T19:27:45.347Z,15.26
2022-09-04T19:30:19.778Z,15.19
2022-09-04T19:32:56.945Z,15.28
2022-09-04T19:36:06.115Z,15.26
2022-09-04T19:44:55.104Z,15.22
2022-09-04T19:45:59.170Z,15.23
2022-09-04T19:46:01.661Z,15.18
2022-09-04T19:48:21.068Z,15.26
2022-09-04T19:53:19.482Z,15.22
2022-09-04T19:53:57.011Z,15.15
2022-09-04T19:56:54.796Z,15.18
2022-09-04T19:59:50.275Z,15.17
2022-09-04T20:02:37.296Z,15.13
2022-09-04T20:05:16.822Z,15.11
2022-09-04T20:07:59.284Z,15.09
2022-09-04T20:10:45.738Z,15.12
2022-09-04T20:13:39.455Z,15.06
2022-09-04T20:16:21.300Z,15.14
2022-09-04T20:19:04.024Z,15.14
2022-09-04T20:21:48.036Z,15.17
2022-09-04T20:24:32.716Z,15.09
2022-09-04T20:27:06.256Z,15.12
2022-09-04T20:29:44.316Z,15.11
2022-09-04T20:32:42.756Z,15.08
2022-09-04T20:35:20.533Z,15.00
2022-09-04T20:38:23.113Z,15.08
2022-09-04T20:41:22.286Z,15.09
2022-09-04T20:44:01.696Z,15.12
2022-09-04T20:51:13.749Z,15.20
2022-09-04T20:52:52.242Z,15.18
2022-09-04T20:52:58.242Z,15.13
2022-09-04T20:55:46.412Z,15.17
2022-09-04T21:03:05.305Z,15.20
2022-09-04T21:03:10.112Z,15.16
2022-09-04T21:04:41.851Z,15.22
2022-09-04T21:07:27.524Z,15.18
2022-09-04T21:10:32.964Z,15.18
2022-09-04T21:13:22.842Z,15.16
2022-09-04T21:16:11.892Z,15.13
2022-09-04T21:19:29.796Z,15.21
2022-09-04T21:22:02.815Z,15.21
2022-09-04T21:24:59.576Z,15.17
2022-09-04T21:28:00.816Z,15.16
2022-09-04T21:30:58.418Z,15.23
2022-09-04T21:34:26.156Z,15.27
2022-09-04T21:37:17.597Z,15.21
2022-09-04T21:40:49.367Z,15.11
2022-09-04T21:43:12.926Z,15.19
2022-09-04T21:46:06.336Z,15.14
2022-09-04T21:48:56.676Z,15.10
2022-09-04T21:51:34.317Z,15.08
2022-09-04T21:54:04.377Z,15.05
2022-09-04T22:02:27.114Z,14.99
2022-09-04T22:02:36.187Z,14.94
2022-09-04T22:03:51.385Z,14.97
2022-09-04T22:06:42.496Z,14.93
2022-09-04T22:13:39.071Z,14.91
2022-09-04T22:13:46.120Z,14.94
2022-09-04T22:16:03.531Z,14.92
2022-09-04T22:19:01.638Z,14.92
2022-09-04T22:21:55.443Z,14.93
2022-09-04T22:25:08.196Z,14.89
2022-09-04T22:28:09.782Z,14.87
2022-09-04T22:30:49.166Z,14.83
2022-09-04T22:34:16.429Z,14.79
2022-09-04T22:37:17.974Z,14.73
2022-09-04T22:40:00.608Z,14.62
2022-09-04T22:42:50.949Z,14.54
2022-09-04T22:46:04.306Z,14.49
2022-09-04T22:49:12.379Z,14.43
2022-09-04T22:51:45.617Z,14.32
2022-09-04T22:54:13.056Z,14.20
2022-09-04T22:56:53.400Z,14.17
2022-09-04T22:59:52.075Z,14.15
2022-09-04T23:03:09.162Z,14.11
2022-09-04T23:05:48.737Z,14.08
2022-09-04T23:13:41.770Z,14.01
2022-09-04T23:13:48.890Z,13.94
2022-09-04T23:14:47.186Z,13.85
2022-09-04T23:17:59.553Z,13.85
2022-09-04T23:26:36.493Z,13.64
2022-09-04T23:26:45.504Z,13.52
2022-09-04T23:27:13.276Z,13.38
2022-09-04T23:30:26.532Z,13.27
2022-09-04T23:33:09.726Z,13.26
2022-09-04T23:36:10.956Z,13.11
2022-09-04T23:39:03.376Z,13.24
2022-09-04T23:42:02.626Z,13.10
2022-09-04T23:44:57.947Z,13.04
2022-09-04T23:48:03.216Z,13.15
2022-09-04T23:51:00.936Z,13.18
2022-09-04T23:54:21.812Z,13.18
2022-09-04T23:57:26.664Z,13.17
